Moose Factory, Canada
Current Conditions -  °F | °C
As of 11:00 PM on Wednesday 28 Jan 2015 (Local Time) from CYMO Reporting Station
Overcast Overcast  
Wind Chill: -7°   Ceiling: 1700
Heat Index:   Visibility: 9mi
Dew Point:   Wind: 9mph
Humidity: 85%   Direction: 50°NE
Pressure: 30.13"   Gusts: NA
Location:  51.26°N, 80.6°W
Report Text: CYMO 290400Z AUTO 05008KT 9SM OVC017 M14/M16 A3013 RMK SLP204
Loading
Personal Weather Stations






























Interactive Weather Map New forecast layout! Learn more

10-Day Weather Forecast

Advertisements
Track Severe Weather on mobile